sensor_id;sensor_type;location;lat;lon;timestamp;temperature;humidity
62991;DHT22;49084;48.204;16.202;2022-09-12T00:01:23;13.40;99.90
62991;DHT22;49084;48.204;16.202;2022-09-12T00:03:54;13.40;99.90
62991;DHT22;49084;48.204;16.202;2022-09-12T00:08:53;13.30;99.90
62991;DHT22;49084;48.204;16.202;2022-09-12T00:11:19;13.30;99.90
62991;DHT22;49084;48.204;16.202;2022-09-12T00:13:44;13.30;99.90
62991;DHT22;49084;48.204;16.202;2022-09-12T00:16:20;13.40;99.90
62991;DHT22;49084;48.204;16.202;2022-09-12T00:18:45;13.30;99.90
62991;DHT22;49084;48.204;16.202;2022-09-12T00:21:12;13.40;99.90
62991;DHT22;49084;48.204;16.202;2022-09-12T00:23:38;13.40;99.90
62991;DHT22;49084;48.204;16.202;2022-09-12T00:26:05;13.40;99.90
62991;DHT22;49084;48.204;16.202;2022-09-12T00:28:32;13.40;99.90
62991;DHT22;49084;48.204;16.202;2022-09-12T00:30:58;13.40;99.90
62991;DHT22;49084;48.204;16.202;2022-09-12T00:33:24;13.30;99.90
62991;DHT22;49084;48.204;16.202;2022-09-12T00:35:51;13.40;99.90
62991;DHT22;49084;48.204;16.202;2022-09-12T00:38:19;13.40;99.90
62991;DHT22;49084;48.204;16.202;2022-09-12T00:40:46;13.40;99.90
62991;DHT22;49084;48.204;16.202;2022-09-12T00:45:39;13.40;99.90
62991;DHT22;49084;48.204;16.202;2022-09-12T00:48:17;13.30;99.90
62991;DHT22;49084;48.204;16.202;2022-09-12T00:50:45;13.40;99.90
62991;DHT22;49084;48.204;16.202;2022-09-12T00:53:11;13.30;99.90
62991;DHT22;49084;48.204;16.202;2022-09-12T00:55:40;13.30;99.90
62991;DHT22;49084;48.204;16.202;2022-09-12T00:58:21;13.30;99.90
62991;DHT22;49084;48.204;16.202;2022-09-12T01:00:47;13.20;99.90
62991;DHT22;49084;48.204;16.202;2022-09-12T01:03:16;13.20;99.90
62991;DHT22;49084;48.204;16.202;2022-09-12T01:06:01;13.20;99.90
62991;DHT22;49084;48.204;16.202;2022-09-12T01:08:32;13.20;99.90
62991;DHT22;49084;48.204;16.202;2022-09-12T01:10:58;13.20;99.90
62991;DHT22;49084;48.204;16.202;2022-09-12T01:13:25;13.20;99.90
62991;DHT22;49084;48.204;16.202;2022-09-12T01:15:50;13.20;99.90
62991;DHT22;49084;48.204;16.202;2022-09-12T01:18:31;13.20;99.90
62991;DHT22;49084;48.204;16.202;2022-09-12T01:32:03;13.10;99.90
62991;DHT22;49084;48.204;16.202;2022-09-12T01:34:44;13.00;99.90
62991;DHT22;49084;48.204;16.202;2022-09-12T01:44:53;13.00;99.90
62991;DHT22;49084;48.204;16.202;2022-09-12T01:52:17;12.90;99.90
62991;DHT22;49084;48.204;16.202;2022-09-12T01:54:52;12.90;99.90
62991;DHT22;49084;48.204;16.202;2022-09-12T01:57:24;12.90;99.90
62991;DHT22;49084;48.204;16.202;2022-09-12T01:59:56;12.80;99.90
62991;DHT22;49084;48.204;16.202;2022-09-12T02:02:39;12.80;99.90
62991;DHT22;49084;48.204;16.202;2022-09-12T02:05:33;12.80;99.90
62991;DHT22;49084;48.204;16.202;2022-09-12T02:08:09;12.80;99.90
62991;DHT22;49084;48.204;16.202;2022-09-12T02:10:58;12.80;99.90
62991;DHT22;49084;48.204;16.202;2022-09-12T02:13:26;12.80;99.90
62991;DHT22;49084;48.204;16.202;2022-09-12T02:15:58;12.80;99.90
62991;DHT22;49084;48.204;16.202;2022-09-12T02:18:26;12.80;99.90
62991;DHT22;49084;48.204;16.202;2022-09-12T02:20:55;12.80;99.90
62991;DHT22;49084;48.204;16.202;2022-09-12T02:23:28;12.80;99.90
62991;DHT22;49084;48.204;16.202;2022-09-12T02:25:57;12.80;99.90
62991;DHT22;49084;48.204;16.202;2022-09-12T02:28:29;12.80;99.90
62991;DHT22;49084;48.204;16.202;2022-09-12T02:31:19;12.80;99.90
62991;DHT22;49084;48.204;16.202;2022-09-12T02:39:12;12.80;99.90
62991;DHT22;49084;48.204;16.202;2022-09-12T02:41:37;12.70;99.90
62991;DHT22;49084;48.204;16.202;2022-09-12T02:44:03;12.70;99.90
62991;DHT22;49084;48.204;16.202;2022-09-12T02:46:39;12.80;99.90
62991;DHT22;49084;48.204;16.202;2022-09-12T02:49:06;12.80;99.90
62991;DHT22;49084;48.204;16.202;2022-09-12T02:51:32;12.80;99.90
62991;DHT22;49084;48.204;16.202;2022-09-12T02:53:58;12.90;99.90
62991;DHT22;49084;48.204;16.202;2022-09-12T02:56:29;12.80;99.90
62991;DHT22;49084;48.204;16.202;2022-09-12T02:58:59;12.80;99.90
62991;DHT22;49084;48.204;16.202;2022-09-12T03:06:38;12.70;99.90
62991;DHT22;49084;48.204;16.202;2022-09-12T03:09:19;12.70;99.90
62991;DHT22;49084;48.204;16.202;2022-09-12T03:12:09;12.70;99.90
62991;DHT22;49084;48.204;16.202;2022-09-12T03:22:52;12.60;99.90
62991;DHT22;49084;48.204;16.202;2022-09-12T03:25:25;12.60;99.90
62991;DHT22;49084;48.204;16.202;2022-09-12T03:28:18;12.60;99.90
62991;DHT22;49084;48.204;16.202;2022-09-12T03:30:47;12.60;99.90
62991;DHT22;49084;48.204;16.202;2022-09-12T03:33:18;12.60;99.90
62991;DHT22;49084;48.204;16.202;2022-09-12T03:35:46;12.60;99.90
62991;DHT22;49084;48.204;16.202;2022-09-12T03:38:12;12.60;99.90
62991;DHT22;49084;48.204;16.202;2022-09-12T03:40:38;12.60;99.90
62991;DHT22;49084;48.204;16.202;2022-09-12T03:43:06;12.60;99.90
62991;DHT22;49084;48.204;16.202;2022-09-12T03:45:32;12.60;99.90
62991;DHT22;49084;48.204;16.202;2022-09-12T03:47:58;12.60;99.90
62991;DHT22;49084;48.204;16.202;2022-09-12T03:50:24;12.60;99.90
62991;DHT22;49084;48.204;16.202;2022-09-12T03:52:49;12.60;99.90
62991;DHT22;49084;48.204;16.202;2022-09-12T03:55:15;12.60;99.90
62991;DHT22;49084;48.204;16.202;2022-09-12T03:57:42;12.60;99.90
62991;DHT22;49084;48.204;16.202;2022-09-12T04:00:08;12.60;99.90
62991;DHT22;49084;48.204;16.202;2022-09-12T04:02:34;12.60;99.90
62991;DHT22;49084;48.204;16.202;2022-09-12T04:05:00;12.60;99.90
62991;DHT22;49084;48.204;16.202;2022-09-12T04:07:26;12.60;99.90
62991;DHT22;49084;48.204;16.202;2022-09-12T04:09:52;12.60;99.90
62991;DHT22;49084;48.204;16.202;2022-09-12T04:12:18;12.60;99.90
62991;DHT22;49084;48.204;16.202;2022-09-12T04:14:44;12.60;99.90
62991;DHT22;49084;48.204;16.202;2022-09-12T04:17:10;12.60;99.90
62991;DHT22;49084;48.204;16.202;2022-09-12T04:19:36;12.60;99.90
62991;DHT22;49084;48.204;16.202;2022-09-12T04:22:02;12.60;99.90
62991;DHT22;49084;48.204;16.202;2022-09-12T04:24:28;12.60;99.90
62991;DHT22;49084;48.204;16.202;2022-09-12T04:26:53;12.60;99.90
62991;DHT22;49084;48.204;16.202;2022-09-12T04:29:19;12.60;99.90
62991;DHT22;49084;48.204;16.202;2022-09-12T04:31:44;12.60;99.90
62991;DHT22;49084;48.204;16.202;2022-09-12T04:34:10;12.60;99.90
62991;DHT22;49084;48.204;16.202;2022-09-12T04:36:36;12.60;99.90
62991;DHT22;49084;48.204;16.202;2022-09-12T04:39:04;12.70;99.90
62991;DHT22;49084;48.204;16.202;2022-09-12T04:41:33;12.70;99.90
62991;DHT22;49084;48.204;16.202;2022-09-12T04:44:02;12.70;99.90
62991;DHT22;49084;48.204;16.202;2022-09-12T04:46:31;12.80;99.90
62991;DHT22;49084;48.204;16.202;2022-09-12T04:48:57;12.80;99.90
62991;DHT22;49084;48.204;16.202;2022-09-12T04:51:25;12.90;99.90
62991;DHT22;49084;48.204;16.202;2022-09-12T04:53:53;12.90;99.90
62991;DHT22;49084;48.204;16.202;2022-09-12T04:56:19;13.00;99.90
62991;DHT22;49084;48.204;16.202;2022-09-12T04:58:46;13.10;99.90
62991;DHT22;49084;48.204;16.202;2022-09-12T05:01:14;13.10;99.90
62991;DHT22;49084;48.204;16.202;2022-09-12T05:03:41;13.20;99.90
62991;DHT22;49084;48.204;16.202;2022-09-12T05:06:20;13.20;99.90
62991;DHT22;49084;48.204;16.202;2022-09-12T05:08:46;13.20;99.90
62991;DHT22;49084;48.204;16.202;2022-09-12T05:11:15;13.30;99.90
62991;DHT22;49084;48.204;16.202;2022-09-12T05:13:41;13.40;99.90
62991;DHT22;49084;48.204;16.202;2022-09-12T05:16:09;13.50;99.90
62991;DHT22;49084;48.204;16.202;2022-09-12T05:18:35;13.60;99.90
62991;DHT22;49084;48.204;16.202;2022-09-12T05:21:02;13.60;99.90
62991;DHT22;49084;48.204;16.202;2022-09-12T05:23:28;13.70;99.90
62991;DHT22;49084;48.204;16.202;2022-09-12T05:25:56;13.90;99.90
62991;DHT22;49084;48.204;16.202;2022-09-12T05:28:23;14.00;99.90
62991;DHT22;49084;48.204;16.202;2022-09-12T05:31:00;14.00;99.90
62991;DHT22;49084;48.204;16.202;2022-09-12T05:33:26;14.10;99.90
62991;DHT22;49084;48.204;16.202;2022-09-12T05:35:52;14.10;99.90
62991;DHT22;49084;48.204;16.202;2022-09-12T05:38:17;14.00;99.90
62991;DHT22;49084;48.204;16.202;2022-09-12T05:40:43;14.00;99.90
62991;DHT22;49084;48.204;16.202;2022-09-12T05:43:09;14.00;99.90
62991;DHT22;49084;48.204;16.202;2022-09-12T05:45:37;14.00;99.90
62991;DHT22;49084;48.204;16.202;2022-09-12T05:48:03;14.20;99.90
62991;DHT22;49084;48.204;16.202;2022-09-12T05:50:29;14.40;99.90
62991;DHT22;49084;48.204;16.202;2022-09-12T05:52:56;14.70;99.90
62991;DHT22;49084;48.204;16.202;2022-09-12T05:55:22;15.00;99.90
62991;DHT22;49084;48.204;16.202;2022-09-12T05:57:49;15.30;99.90
62991;DHT22;49084;48.204;16.202;2022-09-12T06:00:15;15.50;99.90
62991;DHT22;49084;48.204;16.202;2022-09-12T06:02:41;15.80;99.90
62991;DHT22;49084;48.204;16.202;2022-09-12T06:05:07;16.00;99.90
62991;DHT22;49084;48.204;16.202;2022-09-12T06:07:33;16.30;99.90
62991;DHT22;49084;48.204;16.202;2022-09-12T06:10:00;16.40;99.90
62991;DHT22;49084;48.204;16.202;2022-09-12T06:12:27;16.50;99.90
62991;DHT22;49084;48.204;16.202;2022-09-12T06:14:54;16.80;99.90
62991;DHT22;49084;48.204;16.202;2022-09-12T06:17:20;17.20;99.90
62991;DHT22;49084;48.204;16.202;2022-09-12T06:19:46;17.50;99.90
62991;DHT22;49084;48.204;16.202;2022-09-12T06:22:14;17.90;99.90
62991;DHT22;49084;48.204;16.202;2022-09-12T06:24:40;18.20;99.90
62991;DHT22;49084;48.204;16.202;2022-09-12T06:27:06;18.60;99.90
62991;DHT22;49084;48.204;16.202;2022-09-12T06:29:31;18.40;99.90
62991;DHT22;49084;48.204;16.202;2022-09-12T06:31:57;18.10;99.90
62991;DHT22;49084;48.204;16.202;2022-09-12T06:34:23;17.70;99.90
62991;DHT22;49084;48.204;16.202;2022-09-12T06:36:51;17.40;99.90
62991;DHT22;49084;48.204;16.202;2022-09-12T06:39:19;17.20;99.90
62991;DHT22;49084;48.204;16.202;2022-09-12T06:41:46;17.10;99.90
62991;DHT22;49084;48.204;16.202;2022-09-12T06:44:18;17.10;99.90
62991;DHT22;49084;48.204;16.202;2022-09-12T06:46:44;17.10;99.90
62991;DHT22;49084;48.204;16.202;2022-09-12T06:49:10;17.00;99.90
62991;DHT22;49084;48.204;16.202;2022-09-12T06:51:36;17.00;99.90
62991;DHT22;49084;48.204;16.202;2022-09-12T06:54:02;16.80;99.90
62991;DHT22;49084;48.204;16.202;2022-09-12T06:56:28;16.80;99.90
62991;DHT22;49084;48.204;16.202;2022-09-12T06:58:55;16.80;99.90
62991;DHT22;49084;48.204;16.202;2022-09-12T07:01:27;16.80;99.90
62991;DHT22;49084;48.204;16.202;2022-09-12T07:03:55;16.90;99.90
62991;DHT22;49084;48.204;16.202;2022-09-12T07:06:23;16.90;99.90
62991;DHT22;49084;48.204;16.202;2022-09-12T07:08:49;17.00;99.90
62991;DHT22;49084;48.204;16.202;2022-09-12T07:11:22;17.10;99.90
62991;DHT22;49084;48.204;16.202;2022-09-12T07:13:50;17.20;99.90
62991;DHT22;49084;48.204;16.202;2022-09-12T07:16:17;17.40;99.90
62991;DHT22;49084;48.204;16.202;2022-09-12T07:18:42;17.40;99.90
62991;DHT22;49084;48.204;16.202;2022-09-12T07:21:12;17.50;99.90
62991;DHT22;49084;48.204;16.202;2022-09-12T07:23:39;17.50;99.90
62991;DHT22;49084;48.204;16.202;2022-09-12T07:26:07;17.40;99.90
62991;DHT22;49084;48.204;16.202;2022-09-12T07:28:34;17.40;99.90
62991;DHT22;49084;48.204;16.202;2022-09-12T07:31:16;17.30;99.90
62991;DHT22;49084;48.204;16.202;2022-09-12T07:33:43;17.40;99.90
62991;DHT22;49084;48.204;16.202;2022-09-12T07:36:13;17.60;99.90
62991;DHT22;49084;48.204;16.202;2022-09-12T07:38:40;17.90;99.90
62991;DHT22;49084;48.204;16.202;2022-09-12T07:41:10;18.40;99.90
62991;DHT22;49084;48.204;16.202;2022-09-12T07:43:36;18.70;99.90
62991;DHT22;49084;48.204;16.202;2022-09-12T07:46:01;19.00;99.90
62991;DHT22;49084;48.204;16.202;2022-09-12T07:48:27;19.00;99.90
62991;DHT22;49084;48.204;16.202;2022-09-12T07:51:00;19.00;99.90
62991;DHT22;49084;48.204;16.202;2022-09-12T07:53:37;19.20;99.90
62991;DHT22;49084;48.204;16.202;2022-09-12T07:56:04;19.70;99.90
62991;DHT22;49084;48.204;16.202;2022-09-12T07:58:32;20.20;99.90
62991;DHT22;49084;48.204;16.202;2022-09-12T08:01:06;20.30;99.90
62991;DHT22;49084;48.204;16.202;2022-09-12T08:03:33;20.00;99.90
62991;DHT22;49084;48.204;16.202;2022-09-12T08:06:07;19.80;99.90
62991;DHT22;49084;48.204;16.202;2022-09-12T08:08:34;19.60;99.90
62991;DHT22;49084;48.204;16.202;2022-09-12T08:11:02;19.90;99.90
62991;DHT22;49084;48.204;16.202;2022-09-12T08:13:30;20.50;99.90
62991;DHT22;49084;48.204;16.202;2022-09-12T08:16:01;20.70;99.90
62991;DHT22;49084;48.204;16.202;2022-09-12T08:18:27;21.40;99.90
62991;DHT22;49084;48.204;16.202;2022-09-12T08:20:58;21.40;99.90
62991;DHT22;49084;48.204;16.202;2022-09-12T08:23:23;21.00;99.90
62991;DHT22;49084;48.204;16.202;2022-09-12T08:25:50;20.30;99.90
62991;DHT22;49084;48.204;16.202;2022-09-12T08:28:16;20.00;99.90
62991;DHT22;49084;48.204;16.202;2022-09-12T08:30:41;19.70;99.90
62991;DHT22;49084;48.204;16.202;2022-09-12T08:33:07;19.20;99.90
62991;DHT22;49084;48.204;16.202;2022-09-12T08:35:32;19.00;99.90
62991;DHT22;49084;48.204;16.202;2022-09-12T08:37:58;19.50;99.90
62991;DHT22;49084;48.204;16.202;2022-09-12T08:40:24;20.20;99.90
62991;DHT22;49084;48.204;16.202;2022-09-12T08:43:26;20.90;99.90
62991;DHT22;49084;48.204;16.202;2022-09-12T08:46:04;21.80;99.90
62991;DHT22;49084;48.204;16.202;2022-09-12T08:48:32;22.50;99.00
62991;DHT22;49084;48.204;16.202;2022-09-12T08:50:59;22.60;99.10
62991;DHT22;49084;48.204;16.202;2022-09-12T08:53:26;22.90;97.70
62991;DHT22;49084;48.204;16.202;2022-09-12T08:55:57;23.20;97.30
62991;DHT22;49084;48.204;16.202;2022-09-12T08:58:25;23.60;95.50
62991;DHT22;49084;48.204;16.202;2022-09-12T09:01:06;23.80;94.40
62991;DHT22;49084;48.204;16.202;2022-09-12T09:17:32;24.00;89.30
62991;DHT22;49084;48.204;16.202;2022-09-12T09:20:14;24.00;90.30
62991;DHT22;49084;48.204;16.202;2022-09-12T09:23:05;24.20;90.10
62991;DHT22;49084;48.204;16.202;2022-09-12T09:25:41;24.20;87.20
62991;DHT22;49084;48.204;16.202;2022-09-12T09:28:22;24.00;87.90
62991;DHT22;49084;48.204;16.202;2022-09-12T09:30:50;24.30;87.70
62991;DHT22;49084;48.204;16.202;2022-09-12T09:33:25;24.30;86.60
62991;DHT22;49084;48.204;16.202;2022-09-12T09:38:49;23.80;90.40
62991;DHT22;49084;48.204;16.202;2022-09-12T09:41:32;23.60;89.50
62991;DHT22;49084;48.204;16.202;2022-09-12T09:44:01;23.90;86.00
62991;DHT22;49084;48.204;16.202;2022-09-12T09:46:27;23.50;86.40
62991;DHT22;49084;48.204;16.202;2022-09-12T09:48:54;22.90;89.90
62991;DHT22;49084;48.204;16.202;2022-09-12T09:51:28;22.30;90.10
62991;DHT22;49084;48.204;16.202;2022-09-12T09:54:00;22.50;91.50
62991;DHT22;49084;48.204;16.202;2022-09-12T09:59:15;22.80;89.00
62991;DHT22;49084;48.204;16.202;2022-09-12T10:01:51;22.90;90.40
62991;DHT22;49084;48.204;16.202;2022-09-12T10:04:27;23.00;90.70
62991;DHT22;49084;48.204;16.202;2022-09-12T10:06:56;22.40;90.90
62991;DHT22;49084;48.204;16.202;2022-09-12T10:09:31;22.00;91.70
62991;DHT22;49084;48.204;16.202;2022-09-12T10:11:58;22.40;91.70
62991;DHT22;49084;48.204;16.202;2022-09-12T10:17:20;22.90;88.60
62991;DHT22;49084;48.204;16.202;2022-09-12T10:19:47;23.70;86.70
62991;DHT22;49084;48.204;16.202;2022-09-12T10:22:21;24.60;81.20
62991;DHT22;49084;48.204;16.202;2022-09-12T10:24:50;25.20;79.80
62991;DHT22;49084;48.204;16.202;2022-09-12T10:27:25;25.40;77.60
62991;DHT22;49084;48.204;16.202;2022-09-12T10:30:16;24.70;78.40
62991;DHT22;49084;48.204;16.202;2022-09-12T10:32:44;24.80;79.70
62991;DHT22;49084;48.204;16.202;2022-09-12T10:35:20;25.20;76.30
62991;DHT22;49084;48.204;16.202;2022-09-12T10:40:23;24.70;75.20
62991;DHT22;49084;48.204;16.202;2022-09-12T10:42:52;24.90;75.70
62991;DHT22;49084;48.204;16.202;2022-09-12T10:45:30;25.70;75.00
62991;DHT22;49084;48.204;16.202;2022-09-12T10:47:58;26.10;71.40
62991;DHT22;49084;48.204;16.202;2022-09-12T10:50:29;25.90;69.60
62991;DHT22;49084;48.204;16.202;2022-09-12T10:53:22;25.60;70.70
62991;DHT22;49084;48.204;16.202;2022-09-12T10:58:46;25.40;70.90
62991;DHT22;49084;48.204;16.202;2022-09-12T11:09:23;24.80;75.40
62991;DHT22;49084;48.204;16.202;2022-09-12T11:18:07;23.80;76.20
62991;DHT22;49084;48.204;16.202;2022-09-12T11:26:29;24.60;75.60
62991;DHT22;49084;48.204;16.202;2022-09-12T11:29:04;24.80;75.60
62991;DHT22;49084;48.204;16.202;2022-09-12T11:34:43;26.40;71.00
62991;DHT22;49084;48.204;16.202;2022-09-12T11:39:50;26.10;69.50
62991;DHT22;49084;48.204;16.202;2022-09-12T11:42:32;26.10;69.10
62991;DHT22;49084;48.204;16.202;2022-09-12T11:45:27;26.70;68.30
62991;DHT22;49084;48.204;16.202;2022-09-12T11:47:59;27.20;65.20
62991;DHT22;49084;48.204;16.202;2022-09-12T11:50:30;27.10;64.10
62991;DHT22;49084;48.204;16.202;2022-09-12T11:53:04;27.80;64.50
62991;DHT22;49084;48.204;16.202;2022-09-12T11:55:43;28.30;62.30
62991;DHT22;49084;48.204;16.202;2022-09-12T11:58:11;28.40;60.60
62991;DHT22;49084;48.204;16.202;2022-09-12T12:00:43;28.50;61.10
62991;DHT22;49084;48.204;16.202;2022-09-12T12:08:09;27.50;59.90
62991;DHT22;49084;48.204;16.202;2022-09-12T12:16:03;26.40;62.40
62991;DHT22;49084;48.204;16.202;2022-09-12T12:18:32;26.80;61.00
62991;DHT22;49084;48.204;16.202;2022-09-12T12:24:13;27.20;59.70
62991;DHT22;49084;48.204;16.202;2022-09-12T12:40:21;27.00;60.70
62991;DHT22;49084;48.204;16.202;2022-09-12T12:48:06;29.20;56.00
62991;DHT22;49084;48.204;16.202;2022-09-12T12:50:32;29.70;53.80
62991;DHT22;49084;48.204;16.202;2022-09-12T12:53:04;29.40;53.30
62991;DHT22;49084;48.204;16.202;2022-09-12T12:55:36;29.10;53.40
62991;DHT22;49084;48.204;16.202;2022-09-12T12:58:04;28.80;55.10
62991;DHT22;49084;48.204;16.202;2022-09-12T13:05:44;29.90;51.20
62991;DHT22;49084;48.204;16.202;2022-09-12T13:08:24;29.50;51.50
62991;DHT22;49084;48.204;16.202;2022-09-12T13:11:01;28.90;52.40
62991;DHT22;49084;48.204;16.202;2022-09-12T13:13:35;27.60;53.60
62991;DHT22;49084;48.204;16.202;2022-09-12T13:16:02;26.30;56.00
62991;DHT22;49084;48.204;16.202;2022-09-12T13:18:44;25.30;59.10
62991;DHT22;49084;48.204;16.202;2022-09-12T13:21:20;24.80;61.60
62991;DHT22;49084;48.204;16.202;2022-09-12T13:26:27;25.30;62.70
62991;DHT22;49084;48.204;16.202;2022-09-12T13:31:34;25.10;62.00
62991;DHT22;49084;48.204;16.202;2022-09-12T13:34:06;24.80;62.90
62991;DHT22;49084;48.204;16.202;2022-09-12T13:39:27;25.60;62.30
62991;DHT22;49084;48.204;16.202;2022-09-12T13:47:44;26.40;58.60
62991;DHT22;49084;48.204;16.202;2022-09-12T13:50:40;25.70;61.10
62991;DHT22;49084;48.204;16.202;2022-09-12T13:53:13;24.70;63.00
62991;DHT22;49084;48.204;16.202;2022-09-12T13:55:41;23.90;65.50
62991;DHT22;49084;48.204;16.202;2022-09-12T14:00:42;24.00;66.30
62991;DHT22;49084;48.204;16.202;2022-09-12T14:03:25;25.00;63.90
62991;DHT22;49084;48.204;16.202;2022-09-12T14:06:10;24.90;63.80
62991;DHT22;49084;48.204;16.202;2022-09-12T14:08:40;25.70;63.30
62991;DHT22;49084;48.204;16.202;2022-09-12T14:11:10;25.80;62.20
62991;DHT22;49084;48.204;16.202;2022-09-12T14:13:37;26.60;62.10
62991;DHT22;49084;48.204;16.202;2022-09-12T14:16:04;27.00;59.30
62991;DHT22;49084;48.204;16.202;2022-09-12T14:18:36;26.70;59.20
62991;DHT22;49084;48.204;16.202;2022-09-12T14:21:09;26.50;60.60
62991;DHT22;49084;48.204;16.202;2022-09-12T14:23:41;27.50;58.30
62991;DHT22;49084;48.204;16.202;2022-09-12T14:26:10;27.10;58.00
62991;DHT22;49084;48.204;16.202;2022-09-12T14:28:40;26.40;58.80
62991;DHT22;49084;48.204;16.202;2022-09-12T14:31:27;25.80;59.50
62991;DHT22;49084;48.204;16.202;2022-09-12T14:34:17;25.20;61.70
62991;DHT22;49084;48.204;16.202;2022-09-12T14:36:50;24.70;64.10
62991;DHT22;49084;48.204;16.202;2022-09-12T14:41:48;25.80;62.90
62991;DHT22;49084;48.204;16.202;2022-09-12T14:44:22;26.50;61.20
62991;DHT22;49084;48.204;16.202;2022-09-12T14:46:49;26.10;61.40
62991;DHT22;49084;48.204;16.202;2022-09-12T14:49:29;25.20;62.50
62991;DHT22;49084;48.204;16.202;2022-09-12T14:52:02;24.30;64.00
62991;DHT22;49084;48.204;16.202;2022-09-12T14:56:55;23.00;68.00
62991;DHT22;49084;48.204;16.202;2022-09-12T15:04:46;24.00;67.10
62991;DHT22;49084;48.204;16.202;2022-09-12T15:07:34;23.60;67.70
62991;DHT22;49084;48.204;16.202;2022-09-12T15:10:03;23.20;69.30
62991;DHT22;49084;48.204;16.202;2022-09-12T15:12:29;22.80;71.60
62991;DHT22;49084;48.204;16.202;2022-09-12T15:14:59;23.10;69.80
62991;DHT22;49084;48.204;16.202;2022-09-12T15:17:28;23.80;69.00
62991;DHT22;49084;48.204;16.202;2022-09-12T15:19:54;24.40;67.20
62991;DHT22;49084;48.204;16.202;2022-09-12T15:22:21;25.10;65.50
62991;DHT22;49084;48.204;16.202;2022-09-12T15:24:48;25.50;63.80
62991;DHT22;49084;48.204;16.202;2022-09-12T15:27:14;25.40;63.90
62991;DHT22;49084;48.204;16.202;2022-09-12T15:29:39;25.50;64.40
62991;DHT22;49084;48.204;16.202;2022-09-12T15:32:05;25.90;64.50
62991;DHT22;49084;48.204;16.202;2022-09-12T15:34:37;26.00;63.00
62991;DHT22;49084;48.204;16.202;2022-09-12T15:37:11;26.10;64.40
62991;DHT22;49084;48.204;16.202;2022-09-12T15:39:38;26.10;64.40
62991;DHT22;49084;48.204;16.202;2022-09-12T15:42:04;26.20;65.40
62991;DHT22;49084;48.204;16.202;2022-09-12T15:44:29;26.30;65.30
62991;DHT22;49084;48.204;16.202;2022-09-12T15:46:55;26.60;62.70
62991;DHT22;49084;48.204;16.202;2022-09-12T15:49:21;26.20;62.80
62991;DHT22;49084;48.204;16.202;2022-09-12T15:51:46;25.80;60.90
62991;DHT22;49084;48.204;16.202;2022-09-12T15:54:13;25.70;61.40
62991;DHT22;49084;48.204;16.202;2022-09-12T15:56:39;25.70;61.40
62991;DHT22;49084;48.204;16.202;2022-09-12T15:59:05;25.40;61.70
62991;DHT22;49084;48.204;16.202;2022-09-12T16:01:30;25.10;62.40
62991;DHT22;49084;48.204;16.202;2022-09-12T16:03:56;25.10;62.60
62991;DHT22;49084;48.204;16.202;2022-09-12T16:06:23;24.90;65.10
62991;DHT22;49084;48.204;16.202;2022-09-12T16:08:49;24.50;64.10
62991;DHT22;49084;48.204;16.202;2022-09-12T16:11:21;24.10;64.00
62991;DHT22;49084;48.204;16.202;2022-09-12T16:13:47;23.80;66.80
62991;DHT22;49084;48.204;16.202;2022-09-12T16:16:13;23.40;67.20
62991;DHT22;49084;48.204;16.202;2022-09-12T16:18:39;23.00;69.10
62991;DHT22;49084;48.204;16.202;2022-09-12T16:21:05;22.50;72.90
62991;DHT22;49084;48.204;16.202;2022-09-12T16:23:31;22.00;76.20
62991;DHT22;49084;48.204;16.202;2022-09-12T16:25:58;21.40;77.10
62991;DHT22;49084;48.204;16.202;2022-09-12T16:28:24;21.00;80.50
62991;DHT22;49084;48.204;16.202;2022-09-12T16:31:00;20.60;84.10
62991;DHT22;49084;48.204;16.202;2022-09-12T16:33:27;20.30;85.90
62991;DHT22;49084;48.204;16.202;2022-09-12T16:36:03;20.10;90.70
62991;DHT22;49084;48.204;16.202;2022-09-12T16:38:29;19.80;93.60
62991;DHT22;49084;48.204;16.202;2022-09-12T16:41:03;19.60;95.70
62991;DHT22;49084;48.204;16.202;2022-09-12T16:43:29;19.40;98.80
62991;DHT22;49084;48.204;16.202;2022-09-12T16:46:05;19.30;99.90
62991;DHT22;49084;48.204;16.202;2022-09-12T16:48:32;19.10;99.90
62991;DHT22;49084;48.204;16.202;2022-09-12T16:50:59;18.90;99.90
62991;DHT22;49084;48.204;16.202;2022-09-12T16:53:31;18.70;99.90
62991;DHT22;49084;48.204;16.202;2022-09-12T16:55:57;18.60;99.90
62991;DHT22;49084;48.204;16.202;2022-09-12T16:58:23;18.40;99.90
62991;DHT22;49084;48.204;16.202;2022-09-12T17:01:15;18.30;99.90
62991;DHT22;49084;48.204;16.202;2022-09-12T17:03:41;18.00;99.90
62991;DHT22;49084;48.204;16.202;2022-09-12T17:08:36;17.70;99.90
62991;DHT22;49084;48.204;16.202;2022-09-12T17:11:10;17.60;99.90
62991;DHT22;49084;48.204;16.202;2022-09-12T17:13:38;17.40;99.90
62991;DHT22;49084;48.204;16.202;2022-09-12T17:16:08;17.30;99.90
62991;DHT22;49084;48.204;16.202;2022-09-12T17:18:39;17.10;99.90
62991;DHT22;49084;48.204;16.202;2022-09-12T17:21:06;17.00;99.90
62991;DHT22;49084;48.204;16.202;2022-09-12T17:23:32;16.80;99.90
62991;DHT22;49084;48.204;16.202;2022-09-12T17:25:58;16.70;99.90
62991;DHT22;49084;48.204;16.202;2022-09-12T17:28:24;16.60;99.90
62991;DHT22;49084;48.204;16.202;2022-09-12T17:30:57;16.50;99.90
62991;DHT22;49084;48.204;16.202;2022-09-12T17:33:24;16.30;99.90
62991;DHT22;49084;48.204;16.202;2022-09-12T17:35:50;16.20;99.90
62991;DHT22;49084;48.204;16.202;2022-09-12T17:38:16;16.10;99.90
62991;DHT22;49084;48.204;16.202;2022-09-12T17:40:42;16.10;99.90
62991;DHT22;49084;48.204;16.202;2022-09-12T17:43:12;16.00;99.90
62991;DHT22;49084;48.204;16.202;2022-09-12T17:45:39;14.70;99.90
62991;DHT22;49084;48.204;16.202;2022-09-12T17:48:05;15.80;99.90
62991;DHT22;49084;48.204;16.202;2022-09-12T17:50:37;15.70;99.90
62991;DHT22;49084;48.204;16.202;2022-09-12T17:53:03;15.60;99.90
62991;DHT22;49084;48.204;16.202;2022-09-12T17:55:34;15.50;99.90
62991;DHT22;49084;48.204;16.202;2022-09-12T17:58:01;15.40;99.90
62991;DHT22;49084;48.204;16.202;2022-09-12T18:00:27;15.40;99.90
62991;DHT22;49084;48.204;16.202;2022-09-12T18:03:13;15.30;99.90
62991;DHT22;49084;48.204;16.202;2022-09-12T18:05:46;15.20;99.90
62991;DHT22;49084;48.204;16.202;2022-09-12T18:08:12;15.10;99.90
62991;DHT22;49084;48.204;16.202;2022-09-12T18:10:38;15.10;99.90
62991;DHT22;49084;48.204;16.202;2022-09-12T18:13:04;15.00;99.90
62991;DHT22;49084;48.204;16.202;2022-09-12T18:15:32;15.00;99.90
62991;DHT22;49084;48.204;16.202;2022-09-12T18:17:59;15.00;99.90
62991;DHT22;49084;48.204;16.202;2022-09-12T18:20:25;15.10;99.90